sensor_id;sensor_type;location;lat;lon;timestamp;pressure;altitude;pressure_sealevel;temperature;humidity
34921;BME280;21128;50.016;20.002;2024-03-22T00:02:08;99020.44;;;9.26;64.65
34921;BME280;21128;50.016;20.002;2024-03-22T00:04:38;99019.96;;;9.27;64.57
34921;BME280;21128;50.016;20.002;2024-03-22T00:07:05;99020.02;;;9.28;64.64
34921;BME280;21128;50.016;20.002;2024-03-22T00:09:31;99017.98;;;9.30;64.79
34921;BME280;21128;50.016;20.002;2024-03-22T00:11:58;99017.16;;;9.31;64.84
34921;BME280;21128;50.016;20.002;2024-03-22T00:14:25;99020.09;;;9.32;64.89
34921;BME280;21128;50.016;20.002;2024-03-22T00:16:52;99016.66;;;9.31;65.31
34921;BME280;21128;50.016;20.002;2024-03-22T00:19:19;99016.25;;;9.29;64.97
34921;BME280;21128;50.016;20.002;2024-03-22T00:21:46;99015.84;;;9.28;65.38
34921;BME280;21128;50.016;20.002;2024-03-22T00:24:13;99014.42;;;9.26;65.47
34921;BME280;21128;50.016;20.002;2024-03-22T00:26:39;99013.52;;;9.25;65.51
34921;BME280;21128;50.016;20.002;2024-03-22T00:29:06;99014.52;;;9.23;65.55
34921;BME280;21128;50.016;20.002;2024-03-22T00:31:33;99018.63;;;9.22;65.50
34921;BME280;21128;50.016;20.002;2024-03-22T00:33:59;99014.90;;;9.21;65.34
34921;BME280;21128;50.016;20.002;2024-03-22T00:36:26;99017.25;;;9.20;65.24
34921;BME280;21128;50.016;20.002;2024-03-22T00:38:53;99013.19;;;9.18;65.31
34921;BME280;21128;50.016;20.002;2024-03-22T00:41:20;99011.03;;;9.17;65.42
34921;BME280;21128;50.016;20.002;2024-03-22T00:43:46;99012.27;;;9.17;65.41
34921;BME280;21128;50.016;20.002;2024-03-22T00:46:13;99014.01;;;9.17;65.61
34921;BME280;21128;50.016;20.002;2024-03-22T00:48:40;99010.91;;;9.17;66.15
34921;BME280;21128;50.016;20.002;2024-03-22T00:51:07;99011.88;;;9.15;66.05
34921;BME280;21128;50.016;20.002;2024-03-22T00:53:34;99009.73;;;9.14;66.75
34921;BME280;21128;50.016;20.002;2024-03-22T00:56:00;99010.96;;;9.14;66.64
34921;BME280;21128;50.016;20.002;2024-03-22T00:58:27;99013.36;;;9.12;66.93
34921;BME280;21128;50.016;20.002;2024-03-22T01:00:54;99016.75;;;9.11;67.66
34921;BME280;21128;50.016;20.002;2024-03-22T01:03:22;99012.55;;;9.10;67.62
34921;BME280;21128;50.016;20.002;2024-03-22T01:05:50;99008.27;;;9.09;68.56
34921;BME280;21128;50.016;20.002;2024-03-22T01:08:16;99012.24;;;9.09;68.97
34921;BME280;21128;50.016;20.002;2024-03-22T01:10:43;99006.50;;;9.09;69.54
34921;BME280;21128;50.016;20.002;2024-03-22T01:13:10;99004.88;;;9.10;70.31
34921;BME280;21128;50.016;20.002;2024-03-22T01:15:37;99004.30;;;9.10;70.34
34921;BME280;21128;50.016;20.002;2024-03-22T01:18:04;99004.36;;;9.11;70.53
34921;BME280;21128;50.016;20.002;2024-03-22T01:20:31;99005.69;;;9.12;71.33
34921;BME280;21128;50.016;20.002;2024-03-22T01:22:59;99003.51;;;9.13;71.50
34921;BME280;21128;50.016;20.002;2024-03-22T01:25:27;99001.56;;;9.15;72.67
34921;BME280;21128;50.016;20.002;2024-03-22T01:27:55;99003.24;;;9.16;73.11
34921;BME280;21128;50.016;20.002;2024-03-22T01:30:22;99003.33;;;9.15;73.56
34921;BME280;21128;50.016;20.002;2024-03-22T01:32:49;99001.83;;;9.14;74.29
34921;BME280;21128;50.016;20.002;2024-03-22T01:35:16;99000.30;;;9.14;74.78
34921;BME280;21128;50.016;20.002;2024-03-22T01:37:43;98994.19;;;9.14;74.92
34921;BME280;21128;50.016;20.002;2024-03-22T01:40:10;98994.38;;;9.15;75.73
34921;BME280;21128;50.016;20.002;2024-03-22T01:42:37;98996.48;;;9.18;76.20
34921;BME280;21128;50.016;20.002;2024-03-22T01:45:05;99000.22;;;9.19;76.34
34921;BME280;21128;50.016;20.002;2024-03-22T01:47:32;98996.91;;;9.21;77.22
34921;BME280;21128;50.016;20.002;2024-03-22T01:50:00;98990.64;;;9.23;77.34
34921;BME280;21128;50.016;20.002;2024-03-22T01:52:28;98993.31;;;9.24;77.66
34921;BME280;21128;50.016;20.002;2024-03-22T01:54:55;98992.15;;;9.25;78.25
34921;BME280;21128;50.016;20.002;2024-03-22T01:57:23;98988.84;;;9.27;78.66
34921;BME280;21128;50.016;20.002;2024-03-22T01:59:51;98992.89;;;9.29;79.34
34921;BME280;21128;50.016;20.002;2024-03-22T02:02:20;98992.84;;;9.29;79.04
34921;BME280;21128;50.016;20.002;2024-03-22T02:04:50;98991.65;;;9.29;79.70
34921;BME280;21128;50.016;20.002;2024-03-22T02:07:17;98996.95;;;9.30;79.88
34921;BME280;21128;50.016;20.002;2024-03-22T02:09:44;98999.12;;;9.32;79.84
34921;BME280;21128;50.016;20.002;2024-03-22T02:12:11;98999.20;;;9.33;80.60
34921;BME280;21128;50.016;20.002;2024-03-22T02:14:38;99004.66;;;9.32;80.96
34921;BME280;21128;50.016;20.002;2024-03-22T02:17:05;99003.66;;;9.32;81.06
34921;BME280;21128;50.016;20.002;2024-03-22T02:19:32;99002.72;;;9.30;81.77
34921;BME280;21128;50.016;20.002;2024-03-22T02:21:58;99003.71;;;9.29;82.48
34921;BME280;21128;50.016;20.002;2024-03-22T02:24:25;98997.53;;;9.28;82.07
34921;BME280;21128;50.016;20.002;2024-03-22T02:26:52;98998.61;;;9.27;83.05
34921;BME280;21128;50.016;20.002;2024-03-22T02:29:18;98998.74;;;9.26;83.32
34921;BME280;21128;50.016;20.002;2024-03-22T02:31:45;99000.70;;;9.25;83.51
34921;BME280;21128;50.016;20.002;2024-03-22T02:34:12;99000.27;;;9.24;84.22
34921;BME280;21128;50.016;20.002;2024-03-22T02:36:38;98998.38;;;9.24;84.52
34921;BME280;21128;50.016;20.002;2024-03-22T02:39:08;98998.78;;;9.21;85.65
34921;BME280;21128;50.016;20.002;2024-03-22T02:41:34;99000.94;;;9.19;86.14
34921;BME280;21128;50.016;20.002;2024-03-22T02:44:01;99002.37;;;9.16;87.69
34921;BME280;21128;50.016;20.002;2024-03-22T02:46:28;99006.46;;;9.15;88.12
34921;BME280;21128;50.016;20.002;2024-03-22T02:48:55;99002.63;;;9.13;88.77
34921;BME280;21128;50.016;20.002;2024-03-22T02:51:21;99005.05;;;9.13;88.72
34921;BME280;21128;50.016;20.002;2024-03-22T02:53:48;99002.35;;;9.12;89.49
34921;BME280;21128;50.016;20.002;2024-03-22T02:56:15;99005.75;;;9.12;89.96
34921;BME280;21128;50.016;20.002;2024-03-22T02:58:41;99003.87;;;9.11;89.79
34921;BME280;21128;50.016;20.002;2024-03-22T03:01:08;99004.00;;;9.11;90.78
34921;BME280;21128;50.016;20.002;2024-03-22T03:03:35;99005.11;;;9.11;92.77
34921;BME280;21128;50.016;20.002;2024-03-22T03:06:02;99007.95;;;9.10;95.09
34921;BME280;21128;50.016;20.002;2024-03-22T03:08:29;99002.51;;;9.11;95.50
34921;BME280;21128;50.016;20.002;2024-03-22T03:10:56;99004.48;;;9.12;95.23
34921;BME280;21128;50.016;20.002;2024-03-22T03:13:22;99003.42;;;9.14;96.17
34921;BME280;21128;50.016;20.002;2024-03-22T03:15:49;99005.06;;;9.15;97.06
34921;BME280;21128;50.016;20.002;2024-03-22T03:18:16;99006.41;;;9.16;97.13
34921;BME280;21128;50.016;20.002;2024-03-22T03:20:43;99004.31;;;9.16;98.03
34921;BME280;21128;50.016;20.002;2024-03-22T03:23:10;99006.23;;;9.16;99.11
34921;BME280;21128;50.016;20.002;2024-03-22T03:25:36;99001.41;;;9.17;99.63
34921;BME280;21128;50.016;20.002;2024-03-22T03:28:03;99000.63;;;9.18;100.00
34921;BME280;21128;50.016;20.002;2024-03-22T03:30:30;98993.67;;;9.20;100.00
34921;BME280;21128;50.016;20.002;2024-03-22T03:32:57;98991.08;;;9.21;100.00
34921;BME280;21128;50.016;20.002;2024-03-22T03:35:23;98991.16;;;9.22;100.00
34921;BME280;21128;50.016;20.002;2024-03-22T03:37:52;98994.65;;;9.23;100.00
34921;BME280;21128;50.016;20.002;2024-03-22T03:40:19;98992.69;;;9.21;100.00
34921;BME280;21128;50.016;20.002;2024-03-22T03:42:46;98992.19;;;9.21;100.00
34921;BME280;21128;50.016;20.002;2024-03-22T03:45:13;98989.12;;;9.20;100.00
34921;BME280;21128;50.016;20.002;2024-03-22T03:47:39;98988.05;;;9.20;100.00
34921;BME280;21128;50.016;20.002;2024-03-22T03:50:07;98987.91;;;9.20;100.00
34921;BME280;21128;50.016;20.002;2024-03-22T03:52:34;98989.81;;;9.20;100.00
34921;BME280;21128;50.016;20.002;2024-03-22T03:55:00;98989.56;;;9.19;100.00
34921;BME280;21128;50.016;20.002;2024-03-22T03:57:27;98987.52;;;9.18;100.00
34921;BME280;21128;50.016;20.002;2024-03-22T03:59:54;98986.50;;;9.18;100.00
34921;BME280;21128;50.016;20.002;2024-03-22T04:02:21;98984.65;;;9.19;100.00
34921;BME280;21128;50.016;20.002;2024-03-22T04:04:48;98981.65;;;9.19;100.00
34921;BME280;21128;50.016;20.002;2024-03-22T04:07:18;98985.05;;;9.20;100.00
34921;BME280;21128;50.016;20.002;2024-03-22T04:09:44;98986.67;;;9.22;100.00
34921;BME280;21128;50.016;20.002;2024-03-22T04:12:11;98983.05;;;9.23;100.00
34921;BME280;21128;50.016;20.002;2024-03-22T04:14:38;98981.44;;;9.24;100.00
34921;BME280;21128;50.016;20.002;2024-03-22T04:17:04;98982.23;;;9.25;100.00
34921;BME280;21128;50.016;20.002;2024-03-22T04:19:31;98984.98;;;9.25;100.00
34921;BME280;21128;50.016;20.002;2024-03-22T04:21:57;98981.66;;;9.26;100.00
34921;BME280;21128;50.016;20.002;2024-03-22T04:24:24;98985.24;;;9.26;100.00
34921;BME280;21128;50.016;20.002;2024-03-22T04:26:51;98985.71;;;9.27;100.00
34921;BME280;21128;50.016;20.002;2024-03-22T04:29:18;98988.45;;;9.28;100.00
34921;BME280;21128;50.016;20.002;2024-03-22T04:31:44;98987.09;;;9.29;100.00
34921;BME280;21128;50.016;20.002;2024-03-22T04:34:11;98983.67;;;9.30;100.00
34921;BME280;21128;50.016;20.002;2024-03-22T04:36:38;98985.11;;;9.32;100.00
34921;BME280;21128;50.016;20.002;2024-03-22T04:39:04;98989.84;;;9.32;100.00
34921;BME280;21128;50.016;20.002;2024-03-22T04:41:31;98993.10;;;9.33;100.00
34921;BME280;21128;50.016;20.002;2024-03-22T04:43:58;98993.25;;;9.33;100.00
34921;BME280;21128;50.016;20.002;2024-03-22T04:46:24;98993.92;;;9.33;100.00
34921;BME280;21128;50.016;20.002;2024-03-22T04:48:51;98991.20;;;9.33;100.00
34921;BME280;21128;50.016;20.002;2024-03-22T04:51:18;98994.31;;;9.33;100.00
34921;BME280;21128;50.016;20.002;2024-03-22T04:53:44;98998.89;;;9.32;100.00
34921;BME280;21128;50.016;20.002;2024-03-22T04:56:11;98999.06;;;9.33;100.00
34921;BME280;21128;50.016;20.002;2024-03-22T04:58:38;99003.83;;;9.32;100.00
34921;BME280;21128;50.016;20.002;2024-03-22T05:01:05;99004.71;;;9.32;100.00
34921;BME280;21128;50.016;20.002;2024-03-22T05:03:31;99002.86;;;9.30;100.00
34921;BME280;21128;50.016;20.002;2024-03-22T05:05:58;99002.23;;;9.30;100.00
34921;BME280;21128;50.016;20.002;2024-03-22T05:08:25;99008.71;;;9.30;100.00
34921;BME280;21128;50.016;20.002;2024-03-22T05:10:52;99007.31;;;9.30;100.00
34921;BME280;21128;50.016;20.002;2024-03-22T05:13:19;99007.42;;;9.31;100.00
34921;BME280;21128;50.016;20.002;2024-03-22T05:15:46;99004.92;;;9.31;100.00
34921;BME280;21128;50.016;20.002;2024-03-22T05:18:13;99005.69;;;9.33;100.00
34921;BME280;21128;50.016;20.002;2024-03-22T05:20:39;99007.38;;;9.34;100.00
34921;BME280;21128;50.016;20.002;2024-03-22T05:23:06;99011.37;;;9.34;100.00
34921;BME280;21128;50.016;20.002;2024-03-22T05:25:33;99011.70;;;9.34;100.00
34921;BME280;21128;50.016;20.002;2024-03-22T05:28:00;99009.23;;;9.34;100.00
34921;BME280;21128;50.016;20.002;2024-03-22T05:30:27;99016.26;;;9.34;100.00
34921;BME280;21128;50.016;20.002;2024-03-22T05:32:54;99020.56;;;9.33;100.00
34921;BME280;21128;50.016;20.002;2024-03-22T05:35:20;99020.47;;;9.31;100.00
34921;BME280;21128;50.016;20.002;2024-03-22T05:37:47;99023.42;;;9.31;100.00
34921;BME280;21128;50.016;20.002;2024-03-22T05:40:15;99020.41;;;9.32;100.00
34921;BME280;21128;50.016;20.002;2024-03-22T05:42:42;99018.96;;;9.33;100.00
34921;BME280;21128;50.016;20.002;2024-03-22T05:45:09;99020.04;;;9.35;100.00
34921;BME280;21128;50.016;20.002;2024-03-22T05:47:36;99023.27;;;9.38;100.00
34921;BME280;21128;50.016;20.002;2024-03-22T05:50:04;99027.71;;;9.41;100.00
34921;BME280;21128;50.016;20.002;2024-03-22T05:52:33;99023.34;;;9.45;100.00
34921;BME280;21128;50.016;20.002;2024-03-22T05:55:00;99023.90;;;9.49;100.00
34921;BME280;21128;50.016;20.002;2024-03-22T05:57:27;99022.19;;;9.51;100.00
34921;BME280;21128;50.016;20.002;2024-03-22T05:59:54;99019.41;;;9.54;100.00
34921;BME280;21128;50.016;20.002;2024-03-22T06:02:21;99018.09;;;9.57;100.00
34921;BME280;21128;50.016;20.002;2024-03-22T06:04:48;99019.70;;;9.61;100.00
34921;BME280;21128;50.016;20.002;2024-03-22T06:07:14;99020.19;;;9.65;100.00
34921;BME280;21128;50.016;20.002;2024-03-22T06:09:43;99020.79;;;9.67;100.00
34921;BME280;21128;50.016;20.002;2024-03-22T06:12:13;99025.34;;;9.69;100.00
34921;BME280;21128;50.016;20.002;2024-03-22T06:14:44;99024.65;;;9.71;100.00
34921;BME280;21128;50.016;20.002;2024-03-22T06:17:11;99023.02;;;9.71;100.00
34921;BME280;21128;50.016;20.002;2024-03-22T06:19:38;99024.77;;;9.75;100.00
34921;BME280;21128;50.016;20.002;2024-03-22T06:22:05;99023.30;;;9.78;100.00
34921;BME280;21128;50.016;20.002;2024-03-22T06:24:31;99020.20;;;9.81;100.00
34921;BME280;21128;50.016;20.002;2024-03-22T06:26:58;99015.85;;;9.83;100.00
34921;BME280;21128;50.016;20.002;2024-03-22T06:29:25;99022.31;;;9.85;100.00
34921;BME280;21128;50.016;20.002;2024-03-22T06:31:51;99023.89;;;9.87;100.00
34921;BME280;21128;50.016;20.002;2024-03-22T06:34:19;99023.11;;;9.90;100.00
34921;BME280;21128;50.016;20.002;2024-03-22T06:36:46;99021.42;;;9.94;100.00
34921;BME280;21128;50.016;20.002;2024-03-22T06:39:14;99026.98;;;9.98;100.00
34921;BME280;21128;50.016;20.002;2024-03-22T06:41:41;99025.20;;;10.04;100.00
34921;BME280;21128;50.016;20.002;2024-03-22T06:44:08;99028.04;;;10.12;100.00
34921;BME280;21128;50.016;20.002;2024-03-22T06:46:39;99028.15;;;10.19;100.00
34921;BME280;21128;50.016;20.002;2024-03-22T06:49:06;99024.02;;;10.26;100.00
34921;BME280;21128;50.016;20.002;2024-03-22T06:51:33;99024.91;;;10.28;100.00
34921;BME280;21128;50.016;20.002;2024-03-22T06:53:59;99026.63;;;10.26;100.00
34921;BME280;21128;50.016;20.002;2024-03-22T06:56:26;99027.20;;;10.26;100.00
34921;BME280;21128;50.016;20.002;2024-03-22T06:58:53;99022.69;;;10.29;100.00
34921;BME280;21128;50.016;20.002;2024-03-22T07:01:20;99020.98;;;10.31;100.00
34921;BME280;21128;50.016;20.002;2024-03-22T07:03:47;99019.05;;;10.33;100.00
34921;BME280;21128;50.016;20.002;2024-03-22T07:06:14;99018.06;;;10.38;100.00
34921;BME280;21128;50.016;20.002;2024-03-22T07:08:41;99017.19;;;10.42;100.00
34921;BME280;21128;50.016;20.002;2024-03-22T07:11:08;99019.34;;;10.47;100.00
34921;BME280;21128;50.016;20.002;2024-03-22T07:13:35;99024.49;;;10.53;100.00
34921;BME280;21128;50.016;20.002;2024-03-22T07:16:03;99029.02;;;10.55;100.00
34921;BME280;21128;50.016;20.002;2024-03-22T07:18:30;99029.48;;;10.61;100.00
34921;BME280;21128;50.016;20.002;2024-03-22T07:20:56;99026.61;;;10.68;100.00
34921;BME280;21128;50.016;20.002;2024-03-22T07:23:28;99020.86;;;10.67;100.00
34921;BME280;21128;50.016;20.002;2024-03-22T07:25:55;99014.71;;;10.69;100.00
34921;BME280;21128;50.016;20.002;2024-03-22T07:28:22;99018.95;;;10.75;100.00
34921;BME280;21128;50.016;20.002;2024-03-22T07:30:48;99017.86;;;10.79;100.00
34921;BME280;21128;50.016;20.002;2024-03-22T07:33:15;99018.02;;;10.77;100.00
34921;BME280;21128;50.016;20.002;2024-03-22T07:35:44;99017.52;;;10.73;100.00
34921;BME280;21128;50.016;20.002;2024-03-22T07:38:11;99017.30;;;10.70;100.00
34921;BME280;21128;50.016;20.002;2024-03-22T07:40:38;99019.48;;;10.65;100.00
34921;BME280;21128;50.016;20.002;2024-03-22T07:43:05;99018.67;;;10.56;100.00
34921;BME280;21128;50.016;20.002;2024-03-22T07:45:34;99015.31;;;10.51;100.00
34921;BME280;21128;50.016;20.002;2024-03-22T07:48:01;99014.40;;;10.46;100.00
34921;BME280;21128;50.016;20.002;2024-03-22T07:50:28;99016.41;;;10.43;100.00
34921;BME280;21128;50.016;20.002;2024-03-22T07:52:55;99011.78;;;10.39;100.00
34921;BME280;21128;50.016;20.002;2024-03-22T07:55:23;99007.69;;;10.34;100.00
34921;BME280;21128;50.016;20.002;2024-03-22T07:57:50;99004.45;;;10.28;100.00
34921;BME280;21128;50.016;20.002;2024-03-22T08:00:18;99001.17;;;10.23;100.00
34921;BME280;21128;50.016;20.002;2024-03-22T08:02:45;98992.21;;;10.21;100.00
34921;BME280;21128;50.016;20.002;2024-03-22T08:05:11;98995.76;;;10.21;100.00
34921;BME280;21128;50.016;20.002;2024-03-22T08:07:38;98996.78;;;10.21;100.00
34921;BME280;21128;50.016;20.002;2024-03-22T08:10:05;98997.06;;;10.22;100.00
34921;BME280;21128;50.016;20.002;2024-03-22T08:12:32;98998.61;;;10.20;100.00
34921;BME280;21128;50.016;20.002;2024-03-22T08:15:00;98997.36;;;10.16;100.00
34921;BME280;21128;50.016;20.002;2024-03-22T08:17:27;98998.80;;;10.16;100.00
34921;BME280;21128;50.016;20.002;2024-03-22T08:19:53;98997.70;;;10.14;100.00
34921;BME280;21128;50.016;20.002;2024-03-22T08:22:20;98997.34;;;10.13;100.00
34921;BME280;21128;50.016;20.002;2024-03-22T08:24:47;98995.16;;;10.10;100.00
34921;BME280;21128;50.016;20.002;2024-03-22T08:27:14;98990.84;;;10.09;100.00
34921;BME280;21128;50.016;20.002;2024-03-22T08:29:41;98988.30;;;10.10;100.00
34921;BME280;21128;50.016;20.002;2024-03-22T08:32:07;98986.43;;;10.09;100.00
34921;BME280;21128;50.016;20.002;2024-03-22T08:34:34;98986.20;;;10.08;100.00
34921;BME280;21128;50.016;20.002;2024-03-22T08:37:01;98986.02;;;10.10;100.00
34921;BME280;21128;50.016;20.002;2024-03-22T08:39:30;98986.74;;;10.15;100.00
34921;BME280;21128;50.016;20.002;2024-03-22T08:41:57;98988.48;;;10.20;100.00
34921;BME280;21128;50.016;20.002;2024-03-22T08:44:24;98987.31;;;10.24;100.00
34921;BME280;21128;50.016;20.002;2024-03-22T08:46:51;98993.59;;;10.24;100.00
34921;BME280;21128;50.016;20.002;2024-03-22T08:49:18;98992.74;;;10.25;100.00
34921;BME280;21128;50.016;20.002;2024-03-22T08:51:45;98990.99;;;10.27;100.00
34921;BME280;21128;50.016;20.002;2024-03-22T08:54:12;98992.96;;;10.27;100.00
34921;BME280;21128;50.016;20.002;2024-03-22T08:56:39;98995.44;;;10.27;100.00
34921;BME280;21128;50.016;20.002;2024-03-22T08:59:06;98991.95;;;10.26;100.00
34921;BME280;21128;50.016;20.002;2024-03-22T09:01:33;98992.70;;;10.28;100.00
34921;BME280;21128;50.016;20.002;2024-03-22T09:03:59;98993.36;;;10.28;100.00
34921;BME280;21128;50.016;20.002;2024-03-22T09:06:26;98993.64;;;10.25;100.00
34921;BME280;21128;50.016;20.002;2024-03-22T09:08:53;98996.33;;;10.18;100.00
34921;BME280;21128;50.016;20.002;2024-03-22T09:11:24;98993.80;;;10.15;100.00
34921;BME280;21128;50.016;20.002;2024-03-22T09:13:54;98987.71;;;10.16;100.00
34921;BME280;21128;50.016;20.002;2024-03-22T09:16:21;98990.55;;;10.20;100.00
34921;BME280;21128;50.016;20.002;2024-03-22T09:18:48;98985.36;;;10.24;100.00
34921;BME280;21128;50.016;20.002;2024-03-22T09:21:15;98981.27;;;10.32;100.00
34921;BME280;21128;50.016;20.002;2024-03-22T09:23:42;98983.68;;;10.43;100.00
34921;BME280;21128;50.016;20.002;2024-03-22T09:26:09;98982.85;;;10.52;100.00
34921;BME280;21128;50.016;20.002;2024-03-22T09:28:36;98978.39;;;10.58;100.00
34921;BME280;21128;50.016;20.002;2024-03-22T09:31:04;98977.92;;;10.62;100.00
34921;BME280;21128;50.016;20.002;2024-03-22T09:33:35;98977.00;;;10.68;100.00
34921;BME280;21128;50.016;20.002;2024-03-22T09:36:02;98977.05;;;10.71;100.00
34921;BME280;21128;50.016;20.002;2024-03-22T09:38:29;98976.39;;;10.79;100.00
34921;BME280;21128;50.016;20.002;2024-03-22T09:40:56;98977.42;;;10.88;100.00
34921;BME280;21128;50.016;20.002;2024-03-22T09:43:23;98977.29;;;10.95;100.00
34921;BME280;21128;50.016;20.002;2024-03-22T09:45:51;98982.17;;;11.04;100.00
34921;BME280;21128;50.016;20.002;2024-03-22T09:48:19;98976.20;;;11.07;100.00
34921;BME280;21128;50.016;20.002;2024-03-22T09:50:46;98979.98;;;11.08;100.00
34921;BME280;21128;50.016;20.002;2024-03-22T09:53:18;98982.60;;;11.08;100.00
34921;BME280;21128;50.016;20.002;2024-03-22T09:55:48;98977.50;;;11.01;100.00
34921;BME280;21128;50.016;20.002;2024-03-22T09:58:16;98975.90;;;10.93;100.00
34921;BME280;21128;50.016;20.002;2024-03-22T10:00:46;98974.82;;;10.91;100.00
34921;BME280;21128;50.016;20.002;2024-03-22T10:03:13;98973.48;;;10.91;100.00
34921;BME280;21128;50.016;20.002;2024-03-22T10:05:40;98970.02;;;10.92;100.00
34921;BME280;21128;50.016;20.002;2024-03-22T10:08:06;98968.43;;;10.94;100.00
34921;BME280;21128;50.016;20.002;2024-03-22T10:10:33;98966.46;;;10.97;100.00
34921;BME280;21128;50.016;20.002;2024-03-22T10:13:01;98966.35;;;10.96;100.00
34921;BME280;21128;50.016;20.002;2024-03-22T10:15:28;98961.41;;;10.85;100.00
34921;BME280;21128;50.016;20.002;2024-03-22T10:17:56;98961.70;;;10.70;100.00
34921;BME280;21128;50.016;20.002;2024-03-22T10:20:23;98963.85;;;10.61;100.00
34921;BME280;21128;50.016;20.002;2024-03-22T10:22:57;98967.71;;;10.55;100.00
34921;BME280;21128;50.016;20.002;2024-03-22T10:25:26;98965.20;;;10.55;100.00
34921;BME280;21128;50.016;20.002;2024-03-22T10:27:55;98965.89;;;10.57;100.00
34921;BME280;21128;50.016;20.002;2024-03-22T10:30:23;98962.67;;;10.60;100.00
34921;BME280;21128;50.016;20.002;2024-03-22T10:32:50;98969.70;;;10.63;100.00
34921;BME280;21128;50.016;20.002;2024-03-22T10:35:17;98965.35;;;10.67;100.00
34921;BME280;21128;50.016;20.002;2024-03-22T10:37:45;98963.39;;;10.65;100.00
34921;BME280;21128;50.016;20.002;2024-03-22T10:40:12;98960.73;;;10.66;100.00
34921;BME280;21128;50.016;20.002;2024-03-22T10:42:40;98955.86;;;10.67;100.00
34921;BME280;21128;50.016;20.002;2024-03-22T10:45:10;98950.91;;;10.68;100.00
34921;BME280;21128;50.016;20.002;2024-03-22T10:47:37;98950.35;;;10.68;100.00
34921;BME280;21128;50.016;20.002;2024-03-22T10:50:09;98945.03;;;10.71;100.00
34921;BME280;21128;50.016;20.002;2024-03-22T10:52:52;98948.95;;;10.74;100.00
34921;BME280;21128;50.016;20.002;2024-03-22T10:55:26;98942.85;;;10.70;100.00
34921;BME280;21128;50.016;20.002;2024-03-22T10:57:57;98942.56;;;10.71;100.00
34921;BME280;21128;50.016;20.002;2024-03-22T11:00:28;98938.87;;;10.77;100.00
34921;BME280;21128;50.016;20.002;2024-03-22T11:02:56;98936.95;;;10.86;100.00
34921;BME280;21128;50.016;20.002;2024-03-22T11:05:23;98936.46;;;10.91;100.00
34921;BME280;21128;50.016;20.002;2024-03-22T11:08:04;98932.34;;;10.94;100.00
34921;BME280;21128;50.016;20.002;2024-03-22T11:10:35;98932.89;;;10.98;100.00
34921;BME280;21128;50.016;20.002;2024-03-22T11:13:03;98923.97;;;11.07;100.00
34921;BME280;21128;50.016;20.002;2024-03-22T11:15:30;98925.17;;;11.09;99.97
34921;BME280;21128;50.016;20.002;2024-03-22T11:17:57;98918.38;;;11.11;100.00
34921;BME280;21128;50.016;20.002;2024-03-22T11:20:27;98916.87;;;11.14;99.97
34921;BME280;21128;50.016;20.002;2024-03-22T11:22:54;98911.07;;;11.23;100.00
34921;BME280;21128;50.016;20.002;2024-03-22T11:25:21;98911.13;;;11.26;99.92
34921;BME280;21128;50.016;20.002;2024-03-22T11:27:47;98901.79;;;11.29;99.92
34921;BME280;21128;50.016;20.002;2024-03-22T11:30:17;98901.84;;;11.39;99.97
34921;BME280;21128;50.016;20.002;2024-03-22T11:32:44;98898.19;;;11.49;99.42
34921;BME280;21128;50.016;20.002;2024-03-22T11:35:12;98892.25;;;11.53;98.42
34921;BME280;21128;50.016;20.002;2024-03-22T11:37:40;98891.45;;;11.56;98.19
34921;BME280;21128;50.016;20.002;2024-03-22T11:40:11;98895.40;;;11.61;97.77
34921;BME280;21128;50.016;20.002;2024-03-22T11:42:39;98890.73;;;11.64;98.19
34921;BME280;21128;50.016;20.002;2024-03-22T11:45:09;98885.20;;;11.68;97.02
34921;BME280;21128;50.016;20.002;2024-03-22T11:47:37;98878.33;;;11.65;96.67
34921;BME280;21128;50.016;20.002;2024-03-22T11:50:05;98874.09;;;11.60;95.88
34921;BME280;21128;50.016;20.002;2024-03-22T11:52:31;98869.17;;;11.54;96.49
34921;BME280;21128;50.016;20.002;2024-03-22T11:54:58;98865.55;;;11.66;96.82
34921;BME280;21128;50.016;20.002;2024-03-22T11:57:25;98865.00;;;11.70;95.70
34921;BME280;21128;50.016;20.002;2024-03-22T11:59:58;98858.45;;;11.71;95.64
34921;BME280;21128;50.016;20.002;2024-03-22T12:02:26;98853.60;;;11.73;95.60
34921;BME280;21128;50.016;20.002;2024-03-22T12:04:52;98847.77;;;11.79;95.28
34921;BME280;21128;50.016;20.002;2024-03-22T12:07:19;98845.36;;;11.79;94.66
34921;BME280;21128;50.016;20.002;2024-03-22T12:09:46;98842.67;;;11.79;94.15
34921;BME280;21128;50.016;20.002;2024-03-22T12:12:13;98832.02;;;11.83;94.47
34921;BME280;21128;50.016;20.002;2024-03-22T12:14:40;98827.46;;;12.00;94.48
34921;BME280;21128;50.016;20.002;2024-03-22T12:17:07;98825.38;;;12.16;94.21
34921;BME280;21128;50.016;20.002;2024-03-22T12:19:34;98830.87;;;12.38;93.89
34921;BME280;21128;50.016;20.002;2024-03-22T12:22:01;98826.96;;;12.60;93.89
34921;BME280;21128;50.016;20.002;2024-03-22T12:24:28;98831.89;;;12.86;93.29
34921;BME280;21128;50.016;20.002;2024-03-22T12:26:55;98825.64;;;13.02;90.40
34921;BME280;21128;50.016;20.002;2024-03-22T12:29:21;98821.95;;;13.09;90.38
34921;BME280;21128;50.016;20.002;2024-03-22T12:31:48;98814.92;;;13.17;88.99
34921;BME280;21128;50.016;20.002;2024-03-22T12:34:15;98807.58;;;13.24;88.08
34921;BME280;21128;50.016;20.002;2024-03-22T12:36:42;98801.55;;;13.31;88.36
34921;BME280;21128;50.016;20.002;2024-03-22T12:39:09;98794.30;;;13.38;86.80
34921;BME280;21128;50.016;20.002;2024-03-22T12:41:36;98796.31;;;13.31;85.19
34921;BME280;21128;50.016;20.002;2024-03-22T12:44:02;98796.98;;;13.09;83.85
34921;BME280;21128;50.016;20.002;2024-03-22T12:46:30;98792.75;;;12.87;83.56
34921;BME280;21128;50.016;20.002;2024-03-22T12:48:57;98800.95;;;12.77;84.83
34921;BME280;21128;50.016;20.002;2024-03-22T12:51:23;98805.21;;;12.77;84.39